Terminal Aerodrome Forecast
Issued by NWS Grand Forks, ND

Home | Current Version | Previous Version | Graphics & Text | Print | Product List | Glossary On
Versions: 1 2 3 4 5 6 7 8 9 10 11 12 13 14 15 16 17 18 19 20 21 22 23 24 25 26 27 28 29 30 31
130
FTUS43 KFGF 150638 AAB
TAFFAR
TAF AMD
KFAR 150638Z 1507/1606 04006KT P6SM OVC022
     FM151700 17005KT 4SM -SN OVC015
     FM152000 17006KT 2SM -SN OVC015
     FM160200 16005KT P6SM OVC015=

USA.gov is the U.S. government's official web portal to all federal, state and local government web resources and services.